ADDS METAR Data INFO
IDs: Format: Raw Decoded Include TAF

Data at: 1521 UTC 19 Jan 2018

METAR for:KFDY (Findlay Arpt, OH, US)
Text:KFDY 191453Z AUTO 21015KT 10SM CLR M03/M11 A3003 RMK AO2 SLP176 T10331106 55001
Temperature: -3.3°C ( 26°F)
Dewpoint:-10.6°C ( 13°F) [RH = 57%]
Pressure (altimeter):30.03 inches Hg (1017.0 mb) [Sea level pressure: 1017.6 mb]
Winds:from the SSW (210 degrees) at 17 MPH (15 knots; 7.7 m/s)
Visibility:10 or more sm (16+ km)
Ceiling:at least 12,000 feet AGL
Clouds:sky clear below 12,000 feet AGL
QC Flag:automated observation with no human augmentation